TimeEDT,TemperatureF,Dew PointF,Humidity,Sea Level PressureIn,VisibilityMPH,Wind Direction,Wind SpeedMPH,Gust SpeedMPH,PrecipitationIn,Events,Conditions,WindDirDegrees,DateUTC
12:53 AM,68.0,64.0,87,30.02,10.0,Calm,Calm,-,N/A,,Clear,0,2012-09-17 04:53:00
1:53 AM,68.0,64.0,87,30.02,9.0,Calm,Calm,-,N/A,,Partly Cloudy,0,2012-09-17 05:53:00
2:53 AM,66.9,64.0,90,30.01,8.0,Calm,Calm,-,N/A,,Scattered Clouds,0,2012-09-17 06:53:00
3:53 AM,68.0,63.0,84,30.00,9.0,Calm,Calm,-,N/A,,Scattered Clouds,0,2012-09-17 07:53:00
4:53 AM,66.0,63.0,90,29.99,8.0,Calm,Calm,-,N/A,,Mostly Cloudy,0,2012-09-17 08:53:00
5:53 AM,68.0,64.0,87,29.97,9.0,Calm,Calm,-,N/A,,Scattered Clouds,0,2012-09-17 09:53:00
6:53 AM,66.9,64.0,90,29.98,9.0,Calm,Calm,-,0.00,,Overcast,0,2012-09-17 10:53:00
7:53 AM,66.9,64.0,90,29.99,6.0,Calm,Calm,-,N/A,,Overcast,0,2012-09-17 11:53:00
8:22 AM,66.2,64.4,94,30.03,1.8,WSW,3.5,-,0.02,Rain,Rain,240,2012-09-17 12:22:00
8:26 AM,66.2,64.4,94,30.03,1.5,SW,4.6,-,0.04,Rain-Thunderstorm,Thunderstorms and Rain,220,2012-09-17 12:26:00
8:43 AM,66.2,64.4,94,30.03,1.5,Calm,Calm,-,0.08,Rain,Rain,0,2012-09-17 12:43:00
8:53 AM,66.9,64.9,93,30.00,1.5,Calm,Calm,-,0.10,Rain,Heavy Rain,0,2012-09-17 12:53:00
9:44 AM,66.2,64.4,94,30.02,2.5,North,4.6,-,0.16,Rain,Light Rain,10,2012-09-17 13:44:00
9:53 AM,66.0,64.9,96,30.01,3.0,Calm,Calm,-,0.16,Rain,Light Rain,0,2012-09-17 13:53:00
10:03 AM,66.2,64.4,94,30.02,2.0,ENE,5.8,-,0.01,Rain,Light Rain,70,2012-09-17 14:03:00
10:17 AM,66.2,64.4,94,30.02,2.0,ENE,5.8,-,0.01,Rain,Light Rain,60,2012-09-17 14:17:00
10:22 AM,66.2,64.4,94,30.02,2.0,NE,5.8,-,0.01,Rain,Light Rain,50,2012-09-17 14:22:00
10:53 AM,66.9,66.0,97,29.99,2.5,ENE,4.6,-,0.02,Rain,Light Rain,70,2012-09-17 14:53:00
11:21 AM,66.2,64.4,94,30.00,1.2,East,9.2,-,0.06,Rain,Heavy Rain,80,2012-09-17 15:21:00
11:35 AM,66.2,66.2,100,30.00,1.2,NE,5.8,-,0.16,Rain,Rain,50,2012-09-17 15:35:00
11:37 AM,66.2,66.2,100,30.00,2.5,ENE,4.6,-,0.16,Rain,Light Rain,60,2012-09-17 15:37:00
11:47 AM,66.2,66.2,100,30.01,1.2,Calm,Calm,-,0.16,Rain,Rain,0,2012-09-17 15:47:00
11:53 AM,66.9,66.0,97,29.99,1.5,Calm,Calm,-,0.19,Rain,Rain,0,2012-09-17 15:53:00
12:02 PM,66.2,64.4,94,30.01,2.5,NNE,3.5,-,0.03,Rain,Heavy Rain,20,2012-09-17 16:02:00
12:53 PM,66.9,64.9,93,29.98,2.0,North,5.8,-,0.15,Rain,Heavy Rain,10,2012-09-17 16:53:00
1:23 PM,66.2,64.4,94,30.00,2.5,NE,5.8,-,0.11,Rain,Rain,50,2012-09-17 17:23:00
1:46 PM,66.2,66.2,100,29.99,2.0,NNE,5.8,-,0.17,Rain,Rain,20,2012-09-17 17:46:00
1:53 PM,66.9,66.0,97,29.96,2.0,NNE,8.1,-,0.22,Rain,Rain,30,2012-09-17 17:53:00
2:09 PM,66.2,64.4,94,29.98,1.5,NNE,8.1,-,0.03,Rain,Rain,30,2012-09-17 18:09:00
2:22 PM,66.2,66.2,100,29.97,1.2,NNE,6.9,-,0.12,Rain,Heavy Rain,20,2012-09-17 18:22:00
2:36 PM,66.2,66.2,100,29.97,1.2,East,4.6,-,0.25,Rain,Heavy Rain,90,2012-09-17 18:36:00
2:53 PM,66.9,66.0,97,29.94,1.8,ENE,5.8,-,0.35,Rain,Rain,60,2012-09-17 18:53:00
2:56 PM,66.2,66.2,100,29.96,1.8,NE,5.8,-,0.01,Rain,Rain,50,2012-09-17 18:56:00
3:13 PM,66.2,66.2,100,29.94,1.8,ENE,6.9,-,0.06,Rain,Rain,60,2012-09-17 19:13:00
3:32 PM,68.0,66.2,94,29.93,2.0,ENE,9.2,-,0.15,Rain,Light Rain,60,2012-09-17 19:32:00
3:43 PM,68.0,66.2,94,29.93,4.0,ENE,5.8,-,0.15,,Overcast,60,2012-09-17 19:43:00
3:53 PM,68.0,66.0,93,29.90,4.0,NE,5.8,-,0.15,,Overcast,40,2012-09-17 19:53:00
4:53 PM,70.0,66.9,90,29.87,5.0,NE,9.2,-,0.00,,Overcast,50,2012-09-17 20:53:00
5:06 PM,69.8,66.2,88,29.89,6.0,ENE,8.1,-,N/A,,Mostly Cloudy,60,2012-09-17 21:06:00
5:53 PM,69.1,66.0,90,29.83,6.0,NE,9.2,-,0.00,Rain,Light Rain,50,2012-09-17 21:53:00
6:38 PM,69.8,66.2,88,29.85,3.0,NNE,8.1,-,0.02,Rain,Rain,30,2012-09-17 22:38:00
6:53 PM,68.0,66.9,96,29.83,3.0,NE,5.8,-,0.05,Rain,Rain,50,2012-09-17 22:53:00
7:11 PM,68.0,66.2,94,29.84,3.0,North,8.1,-,0.04,Rain,Heavy Rain,10,2012-09-17 23:11:00
7:48 PM,68.0,66.2,94,29.83,2.0,NE,6.9,-,0.09,Rain,Rain,40,2012-09-17 23:48:00
7:53 PM,68.0,66.9,96,29.81,2.0,NE,5.8,-,0.09,Rain,Rain,50,2012-09-17 23:53:00
8:53 PM,68.0,66.0,93,29.81,2.0,NE,8.1,-,0.16,Rain,Heavy Rain,50,2012-09-18 00:53:00
9:21 PM,68.0,66.2,94,29.81,1.5,NE,5.8,-,0.16,Rain,Heavy Rain,50,2012-09-18 01:21:00
9:53 PM,68.0,66.9,96,29.78,1.5,ENE,6.9,-,0.25,Rain,Rain,60,2012-09-18 01:53:00
10:39 PM,66.2,66.2,100,29.79,2.0,East,6.9,-,0.31,Rain,Light Rain,80,2012-09-18 02:39:00
10:43 PM,66.2,66.2,100,29.79,3.0,East,4.6,-,0.31,Rain,Light Rain,80,2012-09-18 02:43:00
10:53 PM,66.9,66.0,97,29.75,3.0,ENE,4.6,-,0.31,Rain,Light Rain,70,2012-09-18 02:53:00
11:03 PM,66.2,66.2,100,29.79,2.0,Calm,Calm,-,0.00,Rain,Light Rain,0,2012-09-18 03:03:00
11:25 PM,68.0,66.2,94,29.78,2.0,SE,3.5,-,0.18,Rain,Rain,140,2012-09-18 03:25:00
11:30 PM,68.0,66.2,94,29.78,4.0,Variable,3.5,-,0.19,Rain,Rain,0,2012-09-18 03:30:00
11:53 PM,68.0,66.9,96,29.75,2.5,Calm,Calm,-,0.21,Rain,Rain,0,2012-09-18 03:53:00